Portada
METAR-TAF:

METAR-TAF

Aeroports :

Constanța, Romania

latitud: 44-20N, longitud: 028-26E, altitud: 97 m

Observació

L'informe es va fer fa 26 minuts, a les 01:00 UTC
Vent 7 kt del Oest/Sud-Oest
Temperatura -1°C
Humitat 93%
Pressió 1027 hPa
Visibilitat 10 km o més
sense núvols per sota de 1500 mi sense presència de cumulonimbus.

METAR: LRCK 060100Z 24007KT CAVOK M01/M02 Q1027 NOSIG

Hora: 03:26 (01:26 UTC)

Pronòstic

L'informe es va fer fa 2 hores i 26 minuts, a les 23:00 UTC
Pronòstic vàlid del 06 a les 00 UTC al 06 a les 24 UTC
Vent 6 kt del Sud-Oest
Visibilitat 10 km o més
sense núvols per sota de 1500 mi sense presència de cumulonimbus.

TAF: LRCK 052300Z 0600/0624 22006KT CAVOK

Observacions i pronòstics meteorològics de més de 4000 aeroports (METAR i TAF).

Les estacions disponibles són els punts grocs i vermells al mapa.

Posi el ratolí al punt desitjat per veure el nom de l'estació.

Feu clic per veure les observacions i els pronòstics meteorològics.

Per canviar el mapa: feu clic els botons verds amb una creu de color negre per apropar; al botó verd amb un guió per allunyar la imatge; o en les fletxes verdes per a mapes adjacents.


METAR-TAF: